»·PEaware :: N9401L KSBP-KSBA

N9401L :: KSBP-KSBA

FLIGHT INFORMATION

Flight Status: Arrived
Operator: Privately registered:
United States
More flights under this callsign
Pilot: Juan D. (11620)
Aircraft: PIPER PA-28R-201 ARROW
(P28R)
More flights by this aircraft type
Origin: KSBP San Luis Co Regl
United States
Destination: KSBA Santa Barbara Mun
United States
More flights between these airports :: More routes between these airports
Route: +MQO V27 GVO
File this flight plan on PilotEdge
Remarks:
Altitude:
(Current/Filed)
5,000ft
Speed:
(Current/Filed)
130kts
Departed: 06-Oct-18 03:31 PM
Arrived: 06-Oct-18 04:17 PM
Distance/Time
Traveled:
62nm/0:46
Distance/Time
To Go:
Arrived

Flight Plot

Page will automatically refresh every two minutes.


Map Options




Map Legend


Flown Route
Filed Route
Departure Airport
Arrival Airport
Navaid (VOR, NDB)
Fix

Horizontal Profiles

Position Reports

Time Latitude Longitude Heading Altitude Ground
Speed
06-Oct-18 15:21 35.237915 -120.638643 270 214ft 0kts
06-Oct-18 15:22 35.237915 -120.638643 270 214ft 0kts
06-Oct-18 15:23 35.237915 -120.638643 270 214ft 0kts
06-Oct-18 15:24 35.237915 -120.638643 270 214ft 0kts
06-Oct-18 15:25 35.237915 -120.638643 270 214ft 0kts
06-Oct-18 15:26 35.237915 -120.638643 270 214ft 0kts
06-Oct-18 15:27 35.237915 -120.638643 270 214ft 0kts
06-Oct-18 15:28 35.237915 -120.638643 270 214ft 0kts
06-Oct-18 15:29 35.237916 -120.638670 271 214ft 1kts
06-Oct-18 15:30 35.235523 -120.635917 123 214ft 24kts
06-Oct-18 15:31 35.233308 -120.632342 192 214ft 0kts
06-Oct-18 15:32 35.233793 -120.634840 304 214ft 26kts
06-Oct-18 15:33 35.243994 -120.653828 307 1240ft 70kts
06-Oct-18 15:34 35.255190 -120.674113 307 2513ft 73kts
06-Oct-18 15:35 35.266319 -120.694397 307 3511ft 73kts
06-Oct-18 15:36 35.277603 -120.715060 307 4456ft 73kts
06-Oct-18 15:37 35.290054 -120.737584 308 5001ft 104kts
06-Oct-18 15:38 35.308562 -120.769402 308 4992ft 118kts
06-Oct-18 15:39 35.326881 -120.801072 307 5340ft 103kts
06-Oct-18 15:40 35.335481 -120.818160 306 6583ft 54kts
06-Oct-18 15:41 35.337647 -120.839138 233 7006ft 120kts
06-Oct-18 15:42 35.305804 -120.818522 121 6995ft 158kts
06-Oct-18 15:43 35.279931 -120.773628 121 6994ft 163kts
06-Oct-18 15:44 35.253743 -120.727953 121 6995ft 163kts
06-Oct-18 15:45 35.227782 -120.682492 121 6995ft 163kts
06-Oct-18 15:46 35.201881 -120.636952 121 6995ft 163kts
06-Oct-18 15:47 35.176074 -120.591310 121 6994ft 164kts
06-Oct-18 15:48 35.150286 -120.545127 120 6992ft 165kts
06-Oct-18 15:49 35.124698 -120.498442 121 6989ft 166kts
06-Oct-18 15:50 35.099324 -120.450980 121 6985ft 168kts
06-Oct-18 15:51 35.074264 -120.402757 119 7058ft 166kts
06-Oct-18 15:52 35.051349 -120.357837 120 7065ft 170kts
06-Oct-18 15:53 35.026948 -120.309205 120 7058ft 170kts
06-Oct-18 15:54 35.002273 -120.259870 120 7060ft 170kts
06-Oct-18 15:55 34.977175 -120.210944 123 7055ft 170kts
06-Oct-18 15:56 34.950762 -120.162753 123 7050ft 170kts
06-Oct-18 15:57 34.924595 -120.114617 123 7044ft 169kts
06-Oct-18 15:58 34.898888 -120.067049 123 7039ft 169kts
06-Oct-18 15:59 34.873294 -120.019323 122 7031ft 168kts
06-Oct-18 16:00 34.842712 -119.981904 190 7021ft 152kts
06-Oct-18 16:01 34.800678 -119.985730 192 7027ft 151kts
06-Oct-18 16:02 34.758819 -119.989728 192 7027ft 151kts
06-Oct-18 16:03 34.716823 -119.993895 200 7025ft 149kts
06-Oct-18 16:04 34.676860 -120.005279 203 7029ft 148kts
06-Oct-18 16:05 34.636488 -120.017836 203 6831ft 158kts
06-Oct-18 16:06 34.592830 -120.032265 203 6069ft 164kts
06-Oct-18 16:07 34.548863 -120.047157 203 5279ft 160kts
06-Oct-18 16:08 34.512836 -120.064653 221 5413ft 133kts
06-Oct-18 16:09 34.482920 -120.090200 221 5410ft 130kts
06-Oct-18 16:10 34.453573 -120.115685 221 5408ft 129kts
06-Oct-18 16:11 34.419875 -120.126262 136 4985ft 164kts
06-Oct-18 16:12 34.409905 -120.071767 81 3963ft 186kts
06-Oct-18 16:13 34.421068 -120.013653 79 3015ft 158kts
06-Oct-18 16:14 34.426786 -119.966260 103 2828ft 107kts
06-Oct-18 16:15 34.426403 -119.934873 84 1461ft 91kts
06-Oct-18 16:16 34.427540 -119.905332 91 908ft 73kts
06-Oct-18 16:17 34.427515 -119.880754 94 559ft 73kts
06-Oct-18 16:18 34.427522 -119.857727 95 104ft 59kts
06-Oct-18 16:19 34.428454 -119.845669 91 16ft 19kts
06-Oct-18 16:20 34.429469 -119.843000 65 16ft 33kts
06-Oct-18 16:21 34.429909 -119.841907 65 16ft 0kts
06-Oct-18 16:22 34.432611 -119.836079 254 16ft 0kts

Navigation Log

Ident Type
Flight plan parsing failed, navigation log unavailable